sensor_id;sensor_type;location;lat;lon;timestamp;temperature;humidity
50013;DHT22;35901;48.694;9.476;2022-12-18T00:01:16;-12.70;99.90
50013;DHT22;35901;48.694;9.476;2022-12-18T00:03:42;-12.70;99.90
50013;DHT22;35901;48.694;9.476;2022-12-18T00:06:08;-12.70;99.90
50013;DHT22;35901;48.694;9.476;2022-12-18T00:08:35;-12.60;99.90
50013;DHT22;35901;48.694;9.476;2022-12-18T00:11:05;-12.60;99.90
50013;DHT22;35901;48.694;9.476;2022-12-18T00:13:31;-12.70;99.90
50013;DHT22;35901;48.694;9.476;2022-12-18T00:16:01;-12.90;99.90
50013;DHT22;35901;48.694;9.476;2022-12-18T00:18:27;-12.90;99.90
50013;DHT22;35901;48.694;9.476;2022-12-18T00:20:53;-12.90;99.90
50013;DHT22;35901;48.694;9.476;2022-12-18T00:23:18;-12.90;99.90
50013;DHT22;35901;48.694;9.476;2022-12-18T00:25:44;-12.80;99.90
50013;DHT22;35901;48.694;9.476;2022-12-18T00:28:09;-12.70;99.90
50013;DHT22;35901;48.694;9.476;2022-12-18T00:30:35;-12.70;99.90
50013;DHT22;35901;48.694;9.476;2022-12-18T00:33:01;-12.60;99.90
50013;DHT22;35901;48.694;9.476;2022-12-18T00:35:26;-12.60;99.90
50013;DHT22;35901;48.694;9.476;2022-12-18T00:37:52;-12.50;99.90
50013;DHT22;35901;48.694;9.476;2022-12-18T00:40:17;-12.50;99.90
50013;DHT22;35901;48.694;9.476;2022-12-18T00:42:43;-12.50;99.90
50013;DHT22;35901;48.694;9.476;2022-12-18T00:45:25;-12.50;99.90
50013;DHT22;35901;48.694;9.476;2022-12-18T00:47:50;-12.40;99.90
50013;DHT22;35901;48.694;9.476;2022-12-18T00:50:16;-12.40;99.90
50013;DHT22;35901;48.694;9.476;2022-12-18T00:52:42;-12.50;99.90
50013;DHT22;35901;48.694;9.476;2022-12-18T00:55:08;-12.50;99.90
50013;DHT22;35901;48.694;9.476;2022-12-18T00:57:34;-12.40;99.90
50013;DHT22;35901;48.694;9.476;2022-12-18T00:59:59;-12.40;99.90
50013;DHT22;35901;48.694;9.476;2022-12-18T01:02:25;-12.40;99.90
50013;DHT22;35901;48.694;9.476;2022-12-18T01:04:51;-12.40;99.90
50013;DHT22;35901;48.694;9.476;2022-12-18T01:07:18;-12.40;99.90
50013;DHT22;35901;48.694;9.476;2022-12-18T01:09:44;-12.40;99.90
50013;DHT22;35901;48.694;9.476;2022-12-18T01:12:10;-12.50;99.90
50013;DHT22;35901;48.694;9.476;2022-12-18T01:14:36;-12.60;99.90
50013;DHT22;35901;48.694;9.476;2022-12-18T01:17:03;-12.60;99.90
50013;DHT22;35901;48.694;9.476;2022-12-18T01:19:32;-12.60;99.90
50013;DHT22;35901;48.694;9.476;2022-12-18T01:21:57;-12.50;99.90
50013;DHT22;35901;48.694;9.476;2022-12-18T01:24:23;-12.50;99.90
50013;DHT22;35901;48.694;9.476;2022-12-18T01:26:49;-12.30;99.90
50013;DHT22;35901;48.694;9.476;2022-12-18T01:29:14;-12.30;99.90
50013;DHT22;35901;48.694;9.476;2022-12-18T01:31:41;-12.20;99.90
50013;DHT22;35901;48.694;9.476;2022-12-18T01:34:06;-12.20;99.90
50013;DHT22;35901;48.694;9.476;2022-12-18T01:36:35;-12.10;99.90
50013;DHT22;35901;48.694;9.476;2022-12-18T01:39:04;-12.10;99.90
50013;DHT22;35901;48.694;9.476;2022-12-18T01:41:31;-12.10;99.90
50013;DHT22;35901;48.694;9.476;2022-12-18T01:49:59;-12.10;99.90
50013;DHT22;35901;48.694;9.476;2022-12-18T01:52:29;-12.10;99.90
50013;DHT22;35901;48.694;9.476;2022-12-18T01:54:58;-12.10;99.90
50013;DHT22;35901;48.694;9.476;2022-12-18T01:57:28;-12.00;99.90
50013;DHT22;35901;48.694;9.476;2022-12-18T01:59:59;-12.00;99.90
50013;DHT22;35901;48.694;9.476;2022-12-18T02:02:27;-12.00;99.90
50013;DHT22;35901;48.694;9.476;2022-12-18T02:04:54;-12.00;99.90
50013;DHT22;35901;48.694;9.476;2022-12-18T02:10:17;-12.00;99.90
50013;DHT22;35901;48.694;9.476;2022-12-18T02:13:03;-12.10;99.90
50013;DHT22;35901;48.694;9.476;2022-12-18T02:15:40;-12.10;99.90
50013;DHT22;35901;48.694;9.476;2022-12-18T02:21:56;-12.40;99.90
50013;DHT22;35901;48.694;9.476;2022-12-18T02:24:34;-12.40;99.90
50013;DHT22;35901;48.694;9.476;2022-12-18T02:27:05;-12.40;99.90
50013;DHT22;35901;48.694;9.476;2022-12-18T02:29:50;-12.30;99.90
50013;DHT22;35901;48.694;9.476;2022-12-18T02:32:21;-12.30;99.90
50013;DHT22;35901;48.694;9.476;2022-12-18T02:34:50;-12.30;99.90
50013;DHT22;35901;48.694;9.476;2022-12-18T02:37:18;-12.40;99.90
50013;DHT22;35901;48.694;9.476;2022-12-18T02:39:47;-12.30;99.90
50013;DHT22;35901;48.694;9.476;2022-12-18T02:42:16;-12.30;99.90
50013;DHT22;35901;48.694;9.476;2022-12-18T02:44:48;-12.20;99.90
50013;DHT22;35901;48.694;9.476;2022-12-18T02:47:23;-12.20;99.90
50013;DHT22;35901;48.694;9.476;2022-12-18T02:53:10;-12.10;99.90
50013;DHT22;35901;48.694;9.476;2022-12-18T02:56:03;-12.20;99.90
50013;DHT22;35901;48.694;9.476;2022-12-18T03:04:23;-12.20;99.90
50013;DHT22;35901;48.694;9.476;2022-12-18T03:06:55;-12.20;99.90
50013;DHT22;35901;48.694;9.476;2022-12-18T03:09:38;-12.20;99.90
50013;DHT22;35901;48.694;9.476;2022-12-18T03:12:28;-12.40;99.90
50013;DHT22;35901;48.694;9.476;2022-12-18T03:15:24;-12.60;99.90
50013;DHT22;35901;48.694;9.476;2022-12-18T03:18:01;-12.80;99.90
50013;DHT22;35901;48.694;9.476;2022-12-18T03:20:31;-12.80;99.90
50013;DHT22;35901;48.694;9.476;2022-12-18T03:23:06;-12.80;99.90
50013;DHT22;35901;48.694;9.476;2022-12-18T03:25:34;-12.80;99.90
50013;DHT22;35901;48.694;9.476;2022-12-18T03:28:03;-12.80;99.90
50013;DHT22;35901;48.694;9.476;2022-12-18T03:30:36;-12.70;99.90
50013;DHT22;35901;48.694;9.476;2022-12-18T03:33:25;-12.70;99.90
50013;DHT22;35901;48.694;9.476;2022-12-18T03:35:53;-12.80;99.90
50013;DHT22;35901;48.694;9.476;2022-12-18T03:38:20;-12.80;99.90
50013;DHT22;35901;48.694;9.476;2022-12-18T03:43:25;-13.00;99.90
50013;DHT22;35901;48.694;9.476;2022-12-18T03:46:09;-13.10;99.90
50013;DHT22;35901;48.694;9.476;2022-12-18T03:48:44;-13.20;99.90
50013;DHT22;35901;48.694;9.476;2022-12-18T03:51:37;-13.40;99.90
50013;DHT22;35901;48.694;9.476;2022-12-18T03:54:09;-13.40;99.90
50013;DHT22;35901;48.694;9.476;2022-12-18T03:56:47;-13.40;99.90
50013;DHT22;35901;48.694;9.476;2022-12-18T03:59:15;-13.40;99.90
50013;DHT22;35901;48.694;9.476;2022-12-18T04:01:47;-13.50;99.90
50013;DHT22;35901;48.694;9.476;2022-12-18T04:04:16;-13.60;99.90
50013;DHT22;35901;48.694;9.476;2022-12-18T04:06:47;-13.60;99.90
50013;DHT22;35901;48.694;9.476;2022-12-18T04:09:23;-13.70;99.90
50013;DHT22;35901;48.694;9.476;2022-12-18T04:11:52;-13.70;99.90
50013;DHT22;35901;48.694;9.476;2022-12-18T04:14:18;-13.70;99.90
50013;DHT22;35901;48.694;9.476;2022-12-18T04:16:48;-13.80;99.90
50013;DHT22;35901;48.694;9.476;2022-12-18T04:19:16;-13.90;99.90
50013;DHT22;35901;48.694;9.476;2022-12-18T04:21:43;-14.00;99.90
50013;DHT22;35901;48.694;9.476;2022-12-18T04:24:10;-14.10;99.90
50013;DHT22;35901;48.694;9.476;2022-12-18T04:26:41;-14.10;99.90
50013;DHT22;35901;48.694;9.476;2022-12-18T04:29:20;-14.10;99.90
50013;DHT22;35901;48.694;9.476;2022-12-18T04:31:46;-14.10;99.90
50013;DHT22;35901;48.694;9.476;2022-12-18T04:34:12;-14.00;99.90
50013;DHT22;35901;48.694;9.476;2022-12-18T04:36:46;-14.10;99.90
50013;DHT22;35901;48.694;9.476;2022-12-18T04:39:12;-14.20;99.90
50013;DHT22;35901;48.694;9.476;2022-12-18T04:41:38;-14.40;99.90
50013;DHT22;35901;48.694;9.476;2022-12-18T04:44:04;-14.50;99.90
50013;DHT22;35901;48.694;9.476;2022-12-18T04:46:30;-14.50;99.90
50013;DHT22;35901;48.694;9.476;2022-12-18T04:48:56;-14.60;99.90
50013;DHT22;35901;48.694;9.476;2022-12-18T04:51:21;-14.70;99.90
50013;DHT22;35901;48.694;9.476;2022-12-18T04:53:47;-14.70;99.90
50013;DHT22;35901;48.694;9.476;2022-12-18T04:56:17;-14.90;99.90
50013;DHT22;35901;48.694;9.476;2022-12-18T04:58:44;-14.90;99.90
50013;DHT22;35901;48.694;9.476;2022-12-18T05:01:11;-15.00;99.90
50013;DHT22;35901;48.694;9.476;2022-12-18T05:03:37;-15.10;99.90
50013;DHT22;35901;48.694;9.476;2022-12-18T05:06:04;-15.10;99.90
50013;DHT22;35901;48.694;9.476;2022-12-18T05:08:30;-15.10;99.90
50013;DHT22;35901;48.694;9.476;2022-12-18T05:13:26;-15.10;99.90
50013;DHT22;35901;48.694;9.476;2022-12-18T05:15:52;-15.10;99.90
50013;DHT22;35901;48.694;9.476;2022-12-18T05:18:18;-15.00;99.90
50013;DHT22;35901;48.694;9.476;2022-12-18T05:20:44;-14.90;99.90
50013;DHT22;35901;48.694;9.476;2022-12-18T05:23:09;-14.80;99.90
50013;DHT22;35901;48.694;9.476;2022-12-18T05:25:35;-14.60;99.90
50013;DHT22;35901;48.694;9.476;2022-12-18T05:28:01;-14.50;99.90
50013;DHT22;35901;48.694;9.476;2022-12-18T05:30:26;-14.40;99.90
50013;DHT22;35901;48.694;9.476;2022-12-18T05:32:53;-14.50;99.90
50013;DHT22;35901;48.694;9.476;2022-12-18T05:35:19;-14.60;99.90
50013;DHT22;35901;48.694;9.476;2022-12-18T05:37:44;-14.70;99.90
50013;DHT22;35901;48.694;9.476;2022-12-18T05:40:11;-15.00;99.90
50013;DHT22;35901;48.694;9.476;2022-12-18T05:42:37;-15.20;99.90
50013;DHT22;35901;48.694;9.476;2022-12-18T05:45:03;-15.40;99.90
50013;DHT22;35901;48.694;9.476;2022-12-18T05:47:28;-15.50;99.90
50013;DHT22;35901;48.694;9.476;2022-12-18T05:49:54;-15.60;99.90
50013;DHT22;35901;48.694;9.476;2022-12-18T05:52:20;-15.70;99.90
50013;DHT22;35901;48.694;9.476;2022-12-18T05:54:46;-15.80;99.90
50013;DHT22;35901;48.694;9.476;2022-12-18T05:57:12;-15.70;99.90
50013;DHT22;35901;48.694;9.476;2022-12-18T05:59:37;-15.80;99.90
50013;DHT22;35901;48.694;9.476;2022-12-18T06:02:03;-15.70;99.90
50013;DHT22;35901;48.694;9.476;2022-12-18T06:04:30;-15.70;99.90
50013;DHT22;35901;48.694;9.476;2022-12-18T06:06:56;-15.60;99.90
50013;DHT22;35901;48.694;9.476;2022-12-18T06:09:21;-15.60;99.90
50013;DHT22;35901;48.694;9.476;2022-12-18T06:11:47;-15.50;99.90
50013;DHT22;35901;48.694;9.476;2022-12-18T06:14:13;-15.50;99.90
50013;DHT22;35901;48.694;9.476;2022-12-18T06:16:38;-15.40;99.90
50013;DHT22;35901;48.694;9.476;2022-12-18T06:19:05;-15.40;99.90
50013;DHT22;35901;48.694;9.476;2022-12-18T06:21:31;-15.30;99.90
50013;DHT22;35901;48.694;9.476;2022-12-18T06:23:57;-15.20;99.90
50013;DHT22;35901;48.694;9.476;2022-12-18T06:26:23;-15.20;99.90
50013;DHT22;35901;48.694;9.476;2022-12-18T06:28:49;-15.30;99.90
50013;DHT22;35901;48.694;9.476;2022-12-18T06:31:15;-15.50;99.90
50013;DHT22;35901;48.694;9.476;2022-12-18T06:33:41;-15.60;99.90
50013;DHT22;35901;48.694;9.476;2022-12-18T06:36:09;-15.80;99.90
50013;DHT22;35901;48.694;9.476;2022-12-18T06:38:37;-15.80;99.90
50013;DHT22;35901;48.694;9.476;2022-12-18T06:41:07;-15.80;99.90
50013;DHT22;35901;48.694;9.476;2022-12-18T06:43:33;-15.80;99.90
50013;DHT22;35901;48.694;9.476;2022-12-18T06:46:00;-15.70;99.90
50013;DHT22;35901;48.694;9.476;2022-12-18T06:48:26;-15.70;99.90
50013;DHT22;35901;48.694;9.476;2022-12-18T06:50:52;-15.60;99.90
50013;DHT22;35901;48.694;9.476;2022-12-18T06:53:17;-15.60;99.90
50013;DHT22;35901;48.694;9.476;2022-12-18T06:55:43;-15.60;99.90
50013;DHT22;35901;48.694;9.476;2022-12-18T06:58:09;-15.60;99.90
50013;DHT22;35901;48.694;9.476;2022-12-18T07:00:34;-15.70;99.90
50013;DHT22;35901;48.694;9.476;2022-12-18T07:03:00;-15.80;99.90
50013;DHT22;35901;48.694;9.476;2022-12-18T07:05:26;-15.80;99.90
50013;DHT22;35901;48.694;9.476;2022-12-18T07:07:52;-15.80;99.90
50013;DHT22;35901;48.694;9.476;2022-12-18T07:10:17;-15.80;99.90
50013;DHT22;35901;48.694;9.476;2022-12-18T07:12:43;-15.70;99.90
50013;DHT22;35901;48.694;9.476;2022-12-18T07:15:09;-15.60;99.90
50013;DHT22;35901;48.694;9.476;2022-12-18T07:17:35;-15.50;99.90
50013;DHT22;35901;48.694;9.476;2022-12-18T07:20:01;-15.60;99.90
50013;DHT22;35901;48.694;9.476;2022-12-18T07:22:27;-15.70;99.90
50013;DHT22;35901;48.694;9.476;2022-12-18T07:24:52;-15.80;99.90
50013;DHT22;35901;48.694;9.476;2022-12-18T07:27:18;-15.80;99.90
50013;DHT22;35901;48.694;9.476;2022-12-18T07:29:44;-15.90;99.90
50013;DHT22;35901;48.694;9.476;2022-12-18T07:32:10;-15.90;99.90
50013;DHT22;35901;48.694;9.476;2022-12-18T07:34:36;-16.00;99.90
50013;DHT22;35901;48.694;9.476;2022-12-18T07:37:02;-15.90;99.90
50013;DHT22;35901;48.694;9.476;2022-12-18T07:39:27;-15.70;99.90
50013;DHT22;35901;48.694;9.476;2022-12-18T07:41:53;-15.30;99.90
50013;DHT22;35901;48.694;9.476;2022-12-18T07:44:39;-14.90;99.90
50013;DHT22;35901;48.694;9.476;2022-12-18T07:47:05;-14.50;99.90
50013;DHT22;35901;48.694;9.476;2022-12-18T07:49:30;-14.20;99.90
50013;DHT22;35901;48.694;9.476;2022-12-18T07:51:56;-13.80;99.90
50013;DHT22;35901;48.694;9.476;2022-12-18T07:54:23;-13.50;99.90
50013;DHT22;35901;48.694;9.476;2022-12-18T07:56:49;-13.30;99.90
50013;DHT22;35901;48.694;9.476;2022-12-18T07:59:14;-13.20;99.90
50013;DHT22;35901;48.694;9.476;2022-12-18T08:01:40;-13.00;99.90
50013;DHT22;35901;48.694;9.476;2022-12-18T08:04:06;-12.70;99.90
50013;DHT22;35901;48.694;9.476;2022-12-18T08:06:32;-12.50;99.90
50013;DHT22;35901;48.694;9.476;2022-12-18T08:08:57;-12.30;99.90
50013;DHT22;35901;48.694;9.476;2022-12-18T08:11:25;-11.80;99.90
50013;DHT22;35901;48.694;9.476;2022-12-18T08:13:51;-11.50;99.90
50013;DHT22;35901;48.694;9.476;2022-12-18T08:16:17;-11.10;99.90
50013;DHT22;35901;48.694;9.476;2022-12-18T08:18:43;-10.90;99.90
50013;DHT22;35901;48.694;9.476;2022-12-18T08:21:16;-10.60;99.90
50013;DHT22;35901;48.694;9.476;2022-12-18T08:23:42;-10.50;99.90
50013;DHT22;35901;48.694;9.476;2022-12-18T08:26:09;-11.00;99.90
50013;DHT22;35901;48.694;9.476;2022-12-18T08:28:35;-11.40;99.90
50013;DHT22;35901;48.694;9.476;2022-12-18T08:31:01;-11.40;99.90
50013;DHT22;35901;48.694;9.476;2022-12-18T08:33:26;-11.40;99.90
50013;DHT22;35901;48.694;9.476;2022-12-18T08:35:52;-11.30;99.90
50013;DHT22;35901;48.694;9.476;2022-12-18T08:38:18;-11.30;99.90
50013;DHT22;35901;48.694;9.476;2022-12-18T08:40:44;-11.20;99.90
50013;DHT22;35901;48.694;9.476;2022-12-18T08:43:10;-11.10;99.90
50013;DHT22;35901;48.694;9.476;2022-12-18T08:45:55;-11.10;99.90
50013;DHT22;35901;48.694;9.476;2022-12-18T08:48:21;-10.90;99.90
50013;DHT22;35901;48.694;9.476;2022-12-18T08:50:56;-10.90;99.90
50013;DHT22;35901;48.694;9.476;2022-12-18T08:53:26;-10.70;99.90
50013;DHT22;35901;48.694;9.476;2022-12-18T08:55:52;-10.60;99.90
50013;DHT22;35901;48.694;9.476;2022-12-18T08:58:19;-10.40;99.90
50013;DHT22;35901;48.694;9.476;2022-12-18T09:00:46;-10.30;99.90
50013;DHT22;35901;48.694;9.476;2022-12-18T09:03:15;-10.00;99.90
50013;DHT22;35901;48.694;9.476;2022-12-18T09:05:42;-9.80;99.90
50013;DHT22;35901;48.694;9.476;2022-12-18T09:08:08;-9.70;99.90
50013;DHT22;35901;48.694;9.476;2022-12-18T09:10:40;-9.60;99.90
50013;DHT22;35901;48.694;9.476;2022-12-18T09:13:06;-9.40;99.90
50013;DHT22;35901;48.694;9.476;2022-12-18T09:15:31;-9.50;99.90
50013;DHT22;35901;48.694;9.476;2022-12-18T09:17:57;-9.60;99.90
50013;DHT22;35901;48.694;9.476;2022-12-18T09:20:23;-9.80;99.90
50013;DHT22;35901;48.694;9.476;2022-12-18T09:22:49;-9.80;99.90
50013;DHT22;35901;48.694;9.476;2022-12-18T09:25:15;-9.80;99.90
50013;DHT22;35901;48.694;9.476;2022-12-18T09:27:41;-9.70;99.90
50013;DHT22;35901;48.694;9.476;2022-12-18T09:30:07;-9.60;99.90
50013;DHT22;35901;48.694;9.476;2022-12-18T09:32:33;-9.60;99.90
50013;DHT22;35901;48.694;9.476;2022-12-18T09:34:59;-9.40;99.90
50013;DHT22;35901;48.694;9.476;2022-12-18T09:37:25;-9.20;99.90
50013;DHT22;35901;48.694;9.476;2022-12-18T09:39:50;-8.50;99.90
50013;DHT22;35901;48.694;9.476;2022-12-18T09:42:23;-7.90;99.90
50013;DHT22;35901;48.694;9.476;2022-12-18T09:44:53;-7.60;99.90
50013;DHT22;35901;48.694;9.476;2022-12-18T09:47:29;-7.40;99.90
50013;DHT22;35901;48.694;9.476;2022-12-18T09:50:02;-7.40;99.90
50013;DHT22;35901;48.694;9.476;2022-12-18T09:52:39;-7.60;99.90
50013;DHT22;35901;48.694;9.476;2022-12-18T09:57:49;-7.40;99.90
50013;DHT22;35901;48.694;9.476;2022-12-18T10:00:17;-7.40;99.90
50013;DHT22;35901;48.694;9.476;2022-12-18T10:02:44;-7.40;99.90
50013;DHT22;35901;48.694;9.476;2022-12-18T10:05:14;-7.10;99.90
50013;DHT22;35901;48.694;9.476;2022-12-18T10:11:03;-6.30;99.90
50013;DHT22;35901;48.694;9.476;2022-12-18T10:19:37;-5.80;99.90
50013;DHT22;35901;48.694;9.476;2022-12-18T10:24:54;-5.40;99.90
50013;DHT22;35901;48.694;9.476;2022-12-18T10:27:25;-4.90;99.90
50013;DHT22;35901;48.694;9.476;2022-12-18T10:29:52;-4.70;99.90
50013;DHT22;35901;48.694;9.476;2022-12-18T10:32:20;-4.60;99.90
50013;DHT22;35901;48.694;9.476;2022-12-18T10:34:51;-4.50;99.90
50013;DHT22;35901;48.694;9.476;2022-12-18T10:37:18;-4.40;99.90
50013;DHT22;35901;48.694;9.476;2022-12-18T10:40:04;-4.40;99.90
50013;DHT22;35901;48.694;9.476;2022-12-18T10:42:31;-4.30;99.90
50013;DHT22;35901;48.694;9.476;2022-12-18T10:47:35;-3.70;99.90
50013;DHT22;35901;48.694;9.476;2022-12-18T10:50:01;-3.90;99.90
50013;DHT22;35901;48.694;9.476;2022-12-18T10:52:27;-3.90;99.90
50013;DHT22;35901;48.694;9.476;2022-12-18T10:54:58;-3.50;99.90
50013;DHT22;35901;48.694;9.476;2022-12-18T10:57:36;-3.30;99.90
50013;DHT22;35901;48.694;9.476;2022-12-18T11:00:24;-3.20;99.90
50013;DHT22;35901;48.694;9.476;2022-12-18T11:02:50;-3.00;99.90
50013;DHT22;35901;48.694;9.476;2022-12-18T11:07:53;-3.00;99.90
50013;DHT22;35901;48.694;9.476;2022-12-18T11:10:35;-3.10;99.90
50013;DHT22;35901;48.694;9.476;2022-12-18T11:13:22;-2.90;99.90
50013;DHT22;35901;48.694;9.476;2022-12-18T11:15:48;-2.90;99.90
50013;DHT22;35901;48.694;9.476;2022-12-18T11:20:53;-2.80;99.90
50013;DHT22;35901;48.694;9.476;2022-12-18T11:23:21;-2.80;99.90
50013;DHT22;35901;48.694;9.476;2022-12-18T11:25:57;-2.60;99.90
50013;DHT22;35901;48.694;9.476;2022-12-18T11:31:25;-2.10;99.90
50013;DHT22;35901;48.694;9.476;2022-12-18T11:34:23;-1.60;99.90
50013;DHT22;35901;48.694;9.476;2022-12-18T11:36:52;-1.50;99.90
50013;DHT22;35901;48.694;9.476;2022-12-18T11:39:27;-1.60;99.90
50013;DHT22;35901;48.694;9.476;2022-12-18T11:44:58;-2.00;99.90
50013;DHT22;35901;48.694;9.476;2022-12-18T11:47:28;-1.70;99.90
50013;DHT22;35901;48.694;9.476;2022-12-18T11:49:56;-1.60;99.90
50013;DHT22;35901;48.694;9.476;2022-12-18T11:52:30;-1.20;99.90
50013;DHT22;35901;48.694;9.476;2022-12-18T11:55:00;-1.30;99.90
50013;DHT22;35901;48.694;9.476;2022-12-18T12:20:47;-0.40;99.90
50013;DHT22;35901;48.694;9.476;2022-12-18T12:26:17;-0.40;99.90
50013;DHT22;35901;48.694;9.476;2022-12-18T12:28:59;-0.90;99.90
50013;DHT22;35901;48.694;9.476;2022-12-18T12:34:17;-1.20;99.90
50013;DHT22;35901;48.694;9.476;2022-12-18T12:39:48;-1.40;99.90
50013;DHT22;35901;48.694;9.476;2022-12-18T12:42:30;-1.80;99.90
50013;DHT22;35901;48.694;9.476;2022-12-18T12:45:26;-1.80;99.90
50013;DHT22;35901;48.694;9.476;2022-12-18T12:47:54;-1.90;99.90
50013;DHT22;35901;48.694;9.476;2022-12-18T12:50:22;-2.00;99.90
50013;DHT22;35901;48.694;9.476;2022-12-18T12:52:52;-1.70;99.90
50013;DHT22;35901;48.694;9.476;2022-12-18T12:55:28;-1.60;99.90
50013;DHT22;35901;48.694;9.476;2022-12-18T12:58:31;-1.60;99.90
50013;DHT22;35901;48.694;9.476;2022-12-18T13:01:12;-1.70;99.90
50013;DHT22;35901;48.694;9.476;2022-12-18T13:03:51;-2.00;99.90
50013;DHT22;35901;48.694;9.476;2022-12-18T13:06:35;-1.90;99.90
50013;DHT22;35901;48.694;9.476;2022-12-18T13:09:03;-1.90;99.90
50013;DHT22;35901;48.694;9.476;2022-12-18T13:14:28;-2.10;99.90
50013;DHT22;35901;48.694;9.476;2022-12-18T13:17:14;-1.90;99.90
50013;DHT22;35901;48.694;9.476;2022-12-18T13:19:40;-1.80;99.90
50013;DHT22;35901;48.694;9.476;2022-12-18T13:22:21;-2.00;99.90
50013;DHT22;35901;48.694;9.476;2022-12-18T13:24:47;-2.10;99.90
50013;DHT22;35901;48.694;9.476;2022-12-18T13:40:59;-2.30;99.90
50013;DHT22;35901;48.694;9.476;2022-12-18T13:43:29;-2.40;99.90
50013;DHT22;35901;48.694;9.476;2022-12-18T13:48:36;-2.10;99.90
50013;DHT22;35901;48.694;9.476;2022-12-18T13:51:08;-2.20;99.90
50013;DHT22;35901;48.694;9.476;2022-12-18T13:56:43;-2.40;99.90
50013;DHT22;35901;48.694;9.476;2022-12-18T13:59:37;-2.30;99.90
50013;DHT22;35901;48.694;9.476;2022-12-18T14:02:14;-2.20;99.90
50013;DHT22;35901;48.694;9.476;2022-12-18T14:04:40;-2.40;99.90
50013;DHT22;35901;48.694;9.476;2022-12-18T14:07:22;-2.50;99.90
50013;DHT22;35901;48.694;9.476;2022-12-18T14:10:11;-2.40;99.90
50013;DHT22;35901;48.694;9.476;2022-12-18T14:12:39;-2.60;99.90
50013;DHT22;35901;48.694;9.476;2022-12-18T14:18:01;-2.70;99.90
50013;DHT22;35901;48.694;9.476;2022-12-18T14:20:30;-2.80;99.90
50013;DHT22;35901;48.694;9.476;2022-12-18T14:22:57;-2.90;99.90
50013;DHT22;35901;48.694;9.476;2022-12-18T14:25:29;-3.00;99.90
50013;DHT22;35901;48.694;9.476;2022-12-18T14:30:36;-3.20;99.90
50013;DHT22;35901;48.694;9.476;2022-12-18T14:35:35;-3.30;99.90
50013;DHT22;35901;48.694;9.476;2022-12-18T14:38:18;-3.40;99.90
50013;DHT22;35901;48.694;9.476;2022-12-18T14:40:45;-3.50;99.90
50013;DHT22;35901;48.694;9.476;2022-12-18T14:43:11;-3.50;99.90
50013;DHT22;35901;48.694;9.476;2022-12-18T14:45:42;-3.60;99.90
50013;DHT22;35901;48.694;9.476;2022-12-18T14:48:14;-3.70;99.90
50013;DHT22;35901;48.694;9.476;2022-12-18T14:50:41;-3.70;99.90
50013;DHT22;35901;48.694;9.476;2022-12-18T14:53:21;-3.80;99.90
50013;DHT22;35901;48.694;9.476;2022-12-18T14:55:48;-3.90;99.90
50013;DHT22;35901;48.694;9.476;2022-12-18T14:58:17;-4.00;99.90
50013;DHT22;35901;48.694;9.476;2022-12-18T15:00:44;-4.00;99.90
50013;DHT22;35901;48.694;9.476;2022-12-18T15:03:19;-4.00;99.90
50013;DHT22;35901;48.694;9.476;2022-12-18T15:05:46;-4.10;99.90
50013;DHT22;35901;48.694;9.476;2022-12-18T15:08:35;-4.10;99.90
50013;DHT22;35901;48.694;9.476;2022-12-18T15:11:01;-4.20;99.90
50013;DHT22;35901;48.694;9.476;2022-12-18T15:13:27;-4.40;99.90
50013;DHT22;35901;48.694;9.476;2022-12-18T15:15:55;-4.50;99.90
50013;DHT22;35901;48.694;9.476;2022-12-18T15:18:31;-4.70;99.90
50013;DHT22;35901;48.694;9.476;2022-12-18T15:21:03;-4.80;99.90
50013;DHT22;35901;48.694;9.476;2022-12-18T15:23:38;-5.00;99.90
50013;DHT22;35901;48.694;9.476;2022-12-18T15:26:12;-5.30;99.90
50013;DHT22;35901;48.694;9.476;2022-12-18T15:28:47;-5.50;99.90
50013;DHT22;35901;48.694;9.476;2022-12-18T15:33:42;-5.70;99.90
50013;DHT22;35901;48.694;9.476;2022-12-18T15:36:15;-5.80;99.90
50013;DHT22;35901;48.694;9.476;2022-12-18T15:38:43;-5.80;99.90
50013;DHT22;35901;48.694;9.476;2022-12-18T15:41:13;-5.90;99.90
50013;DHT22;35901;48.694;9.476;2022-12-18T15:43:39;-5.80;99.90
50013;DHT22;35901;48.694;9.476;2022-12-18T15:46:13;-5.80;99.90
50013;DHT22;35901;48.694;9.476;2022-12-18T15:48:49;-5.90;99.90
50013;DHT22;35901;48.694;9.476;2022-12-18T15:53:46;-6.00;99.90
50013;DHT22;35901;48.694;9.476;2022-12-18T15:56:13;-6.20;99.90
50013;DHT22;35901;48.694;9.476;2022-12-18T15:59:00;-6.40;99.90
50013;DHT22;35901;48.694;9.476;2022-12-18T16:01:28;-6.50;99.90
50013;DHT22;35901;48.694;9.476;2022-12-18T16:03:55;-6.70;99.90
50013;DHT22;35901;48.694;9.476;2022-12-18T16:06:26;-6.80;99.90
50013;DHT22;35901;48.694;9.476;2022-12-18T16:08:58;-6.90;99.90
50013;DHT22;35901;48.694;9.476;2022-12-18T16:11:26;-6.90;99.90
50013;DHT22;35901;48.694;9.476;2022-12-18T16:16:39;-6.60;99.90
50013;DHT22;35901;48.694;9.476;2022-12-18T16:19:05;-6.60;99.90
50013;DHT22;35901;48.694;9.476;2022-12-18T16:21:31;-6.70;99.90
50013;DHT22;35901;48.694;9.476;2022-12-18T16:23:56;-6.80;99.90
50013;DHT22;35901;48.694;9.476;2022-12-18T16:26:22;-6.90;99.90
50013;DHT22;35901;48.694;9.476;2022-12-18T16:28:48;-7.10;99.90
50013;DHT22;35901;48.694;9.476;2022-12-18T16:31:13;-7.10;99.90
50013;DHT22;35901;48.694;9.476;2022-12-18T16:33:39;-7.10;99.90
50013;DHT22;35901;48.694;9.476;2022-12-18T16:36:05;-7.10;99.90
50013;DHT22;35901;48.694;9.476;2022-12-18T16:38:30;-7.10;99.90
50013;DHT22;35901;48.694;9.476;2022-12-18T16:40:56;-7.10;99.90
50013;DHT22;35901;48.694;9.476;2022-12-18T16:43:40;-7.20;99.90
50013;DHT22;35901;48.694;9.476;2022-12-18T16:46:06;-7.10;99.90
50013;DHT22;35901;48.694;9.476;2022-12-18T16:48:31;-7.20;99.90
50013;DHT22;35901;48.694;9.476;2022-12-18T16:51:04;-7.20;99.90
50013;DHT22;35901;48.694;9.476;2022-12-18T16:53:32;-7.30;99.90
50013;DHT22;35901;48.694;9.476;2022-12-18T16:55:58;-7.40;99.90
50013;DHT22;35901;48.694;9.476;2022-12-18T16:58:24;-7.40;99.90
50013;DHT22;35901;48.694;9.476;2022-12-18T17:00:49;-7.40;99.90
50013;DHT22;35901;48.694;9.476;2022-12-18T17:03:15;-7.50;99.90
50013;DHT22;35901;48.694;9.476;2022-12-18T17:05:41;-7.60;99.90
50013;DHT22;35901;48.694;9.476;2022-12-18T17:08:06;-7.60;99.90
50013;DHT22;35901;48.694;9.476;2022-12-18T17:10:35;-7.70;99.90
50013;DHT22;35901;48.694;9.476;2022-12-18T17:13:01;-7.70;99.90
50013;DHT22;35901;48.694;9.476;2022-12-18T17:15:26;-7.60;99.90
50013;DHT22;35901;48.694;9.476;2022-12-18T17:17:52;-7.60;99.90
50013;DHT22;35901;48.694;9.476;2022-12-18T17:20:18;-7.60;99.90
50013;DHT22;35901;48.694;9.476;2022-12-18T17:22:43;-7.60;99.90
50013;DHT22;35901;48.694;9.476;2022-12-18T17:25:09;-7.60;99.90
50013;DHT22;35901;48.694;9.476;2022-12-18T17:27:35;-7.60;99.90
50013;DHT22;35901;48.694;9.476;2022-12-18T17:30:01;-7.60;99.90
50013;DHT22;35901;48.694;9.476;2022-12-18T17:32:27;-7.50;99.90
50013;DHT22;35901;48.694;9.476;2022-12-18T17:34:52;-7.50;99.90
50013;DHT22;35901;48.694;9.476;2022-12-18T17:37:18;-7.40;99.90
50013;DHT22;35901;48.694;9.476;2022-12-18T17:39:43;-7.40;99.90
50013;DHT22;35901;48.694;9.476;2022-12-18T17:42:09;-7.40;99.90